sensor_id;sensor_type;location;lat;lon;timestamp;temperature;humidity
29575;DHT22;16507;51.046;6.406;2023-09-07T00:00:49;15.90;99.90
29575;DHT22;16507;51.046;6.406;2023-09-07T00:03:15;15.90;99.90
29575;DHT22;16507;51.046;6.406;2023-09-07T00:05:41;15.80;99.90
29575;DHT22;16507;51.046;6.406;2023-09-07T00:08:07;15.80;99.90
29575;DHT22;16507;51.046;6.406;2023-09-07T00:10:33;15.90;99.90
29575;DHT22;16507;51.046;6.406;2023-09-07T00:13:03;15.90;99.90
29575;DHT22;16507;51.046;6.406;2023-09-07T00:15:29;15.90;99.90
29575;DHT22;16507;51.046;6.406;2023-09-07T00:17:55;15.90;99.90
29575;DHT22;16507;51.046;6.406;2023-09-07T00:20:22;15.80;99.90
29575;DHT22;16507;51.046;6.406;2023-09-07T00:22:49;15.70;99.90
29575;DHT22;16507;51.046;6.406;2023-09-07T00:25:14;15.70;99.90
29575;DHT22;16507;51.046;6.406;2023-09-07T00:27:41;15.80;99.90
29575;DHT22;16507;51.046;6.406;2023-09-07T00:30:07;15.70;99.90
29575;DHT22;16507;51.046;6.406;2023-09-07T00:32:36;15.80;99.90
29575;DHT22;16507;51.046;6.406;2023-09-07T00:35:02;15.80;99.90
29575;DHT22;16507;51.046;6.406;2023-09-07T00:37:28;15.70;99.90
29575;DHT22;16507;51.046;6.406;2023-09-07T00:39:54;15.60;99.90
29575;DHT22;16507;51.046;6.406;2023-09-07T00:42:20;15.60;99.90
29575;DHT22;16507;51.046;6.406;2023-09-07T00:44:45;15.60;99.90
29575;DHT22;16507;51.046;6.406;2023-09-07T00:47:11;15.50;99.90
29575;DHT22;16507;51.046;6.406;2023-09-07T00:49:37;15.50;99.90
29575;DHT22;16507;51.046;6.406;2023-09-07T00:52:05;15.50;99.90
29575;DHT22;16507;51.046;6.406;2023-09-07T00:54:31;15.50;99.90
29575;DHT22;16507;51.046;6.406;2023-09-07T00:56:57;15.40;99.90
29575;DHT22;16507;51.046;6.406;2023-09-07T00:59:23;15.40;99.90
29575;DHT22;16507;51.046;6.406;2023-09-07T01:01:48;15.50;99.90
29575;DHT22;16507;51.046;6.406;2023-09-07T01:04:14;15.50;99.90
29575;DHT22;16507;51.046;6.406;2023-09-07T01:06:45;15.50;99.90
29575;DHT22;16507;51.046;6.406;2023-09-07T01:09:19;15.50;99.90
29575;DHT22;16507;51.046;6.406;2023-09-07T01:11:45;15.50;99.90
29575;DHT22;16507;51.046;6.406;2023-09-07T01:14:11;15.40;99.90
29575;DHT22;16507;51.046;6.406;2023-09-07T01:16:37;15.20;99.90
29575;DHT22;16507;51.046;6.406;2023-09-07T01:19:08;15.30;99.90
29575;DHT22;16507;51.046;6.406;2023-09-07T01:21:36;15.20;99.90
29575;DHT22;16507;51.046;6.406;2023-09-07T01:24:06;15.30;99.90
29575;DHT22;16507;51.046;6.406;2023-09-07T01:26:32;15.30;99.90
29575;DHT22;16507;51.046;6.406;2023-09-07T01:28:57;15.40;99.90
29575;DHT22;16507;51.046;6.406;2023-09-07T01:31:23;15.40;99.90
29575;DHT22;16507;51.046;6.406;2023-09-07T01:33:49;15.30;99.90
29575;DHT22;16507;51.046;6.406;2023-09-07T01:36:14;15.20;99.90
29575;DHT22;16507;51.046;6.406;2023-09-07T01:38:40;15.10;99.90
29575;DHT22;16507;51.046;6.406;2023-09-07T01:41:05;15.20;99.90
29575;DHT22;16507;51.046;6.406;2023-09-07T01:43:31;15.10;99.90
29575;DHT22;16507;51.046;6.406;2023-09-07T01:45:56;15.10;99.90
29575;DHT22;16507;51.046;6.406;2023-09-07T01:48:22;15.10;99.90
29575;DHT22;16507;51.046;6.406;2023-09-07T01:50:56;15.10;99.90
29575;DHT22;16507;51.046;6.406;2023-09-07T01:53:21;15.10;99.90
29575;DHT22;16507;51.046;6.406;2023-09-07T01:55:47;15.10;99.90
29575;DHT22;16507;51.046;6.406;2023-09-07T01:58:13;15.00;99.90
29575;DHT22;16507;51.046;6.406;2023-09-07T02:00:39;14.90;99.90
29575;DHT22;16507;51.046;6.406;2023-09-07T02:03:05;14.90;99.90
29575;DHT22;16507;51.046;6.406;2023-09-07T02:05:31;15.00;99.90
29575;DHT22;16507;51.046;6.406;2023-09-07T02:07:59;14.90;99.90
29575;DHT22;16507;51.046;6.406;2023-09-07T02:10:26;14.80;99.90
29575;DHT22;16507;51.046;6.406;2023-09-07T02:12:51;14.80;99.90
29575;DHT22;16507;51.046;6.406;2023-09-07T02:15:17;14.80;99.90
29575;DHT22;16507;51.046;6.406;2023-09-07T02:17:43;14.90;99.90
29575;DHT22;16507;51.046;6.406;2023-09-07T02:20:11;14.90;99.90
29575;DHT22;16507;51.046;6.406;2023-09-07T02:22:37;14.90;99.90
29575;DHT22;16507;51.046;6.406;2023-09-07T02:25:03;14.80;99.90
29575;DHT22;16507;51.046;6.406;2023-09-07T02:27:32;14.80;99.90
29575;DHT22;16507;51.046;6.406;2023-09-07T02:29:57;14.70;99.90
29575;DHT22;16507;51.046;6.406;2023-09-07T02:32:23;14.70;99.90
29575;DHT22;16507;51.046;6.406;2023-09-07T02:34:49;14.70;99.90
29575;DHT22;16507;51.046;6.406;2023-09-07T02:37:14;14.80;99.90
29575;DHT22;16507;51.046;6.406;2023-09-07T02:39:41;14.80;99.90
29575;DHT22;16507;51.046;6.406;2023-09-07T02:42:07;14.80;99.90
29575;DHT22;16507;51.046;6.406;2023-09-07T02:44:33;14.80;99.90
29575;DHT22;16507;51.046;6.406;2023-09-07T02:46:58;14.90;99.90
29575;DHT22;16507;51.046;6.406;2023-09-07T02:49:24;14.90;99.90
29575;DHT22;16507;51.046;6.406;2023-09-07T02:51:50;14.90;99.90
29575;DHT22;16507;51.046;6.406;2023-09-07T02:54:15;14.90;99.90
29575;DHT22;16507;51.046;6.406;2023-09-07T02:56:41;15.00;99.90
29575;DHT22;16507;51.046;6.406;2023-09-07T02:59:06;15.00;99.90
29575;DHT22;16507;51.046;6.406;2023-09-07T03:01:32;15.00;99.90
29575;DHT22;16507;51.046;6.406;2023-09-07T03:03:57;15.00;99.90
29575;DHT22;16507;51.046;6.406;2023-09-07T03:06:23;14.90;99.90
29575;DHT22;16507;51.046;6.406;2023-09-07T03:08:49;14.80;99.90
29575;DHT22;16507;51.046;6.406;2023-09-07T03:11:14;14.70;99.90
29575;DHT22;16507;51.046;6.406;2023-09-07T03:13:40;14.80;99.90
29575;DHT22;16507;51.046;6.406;2023-09-07T03:16:07;14.70;99.90
29575;DHT22;16507;51.046;6.406;2023-09-07T03:18:33;14.70;99.90
29575;DHT22;16507;51.046;6.406;2023-09-07T03:21:01;14.60;99.90
29575;DHT22;16507;51.046;6.406;2023-09-07T03:23:31;14.60;99.90
29575;DHT22;16507;51.046;6.406;2023-09-07T03:25:58;14.60;99.90
29575;DHT22;16507;51.046;6.406;2023-09-07T03:28:24;14.60;99.90
29575;DHT22;16507;51.046;6.406;2023-09-07T03:30:55;14.70;99.90
29575;DHT22;16507;51.046;6.406;2023-09-07T03:33:22;14.80;99.90
29575;DHT22;16507;51.046;6.406;2023-09-07T03:35:47;14.80;99.90
29575;DHT22;16507;51.046;6.406;2023-09-07T03:38:13;14.70;99.90
29575;DHT22;16507;51.046;6.406;2023-09-07T03:40:39;14.70;99.90
29575;DHT22;16507;51.046;6.406;2023-09-07T03:43:04;14.70;99.90
29575;DHT22;16507;51.046;6.406;2023-09-07T03:45:30;14.60;99.90
29575;DHT22;16507;51.046;6.406;2023-09-07T03:47:56;14.60;99.90
29575;DHT22;16507;51.046;6.406;2023-09-07T03:50:22;14.60;99.90
29575;DHT22;16507;51.046;6.406;2023-09-07T03:52:47;14.50;99.90
29575;DHT22;16507;51.046;6.406;2023-09-07T03:55:13;14.50;99.90
29575;DHT22;16507;51.046;6.406;2023-09-07T03:57:39;14.50;99.90
29575;DHT22;16507;51.046;6.406;2023-09-07T04:00:06;14.40;99.90
29575;DHT22;16507;51.046;6.406;2023-09-07T04:02:34;14.40;99.90
29575;DHT22;16507;51.046;6.406;2023-09-07T04:05:00;14.40;99.90
29575;DHT22;16507;51.046;6.406;2023-09-07T04:07:30;14.40;99.90
29575;DHT22;16507;51.046;6.406;2023-09-07T04:09:56;14.40;99.90
29575;DHT22;16507;51.046;6.406;2023-09-07T04:12:22;14.30;99.90
29575;DHT22;16507;51.046;6.406;2023-09-07T04:14:47;14.20;99.90
29575;DHT22;16507;51.046;6.406;2023-09-07T04:17:13;14.20;99.90
29575;DHT22;16507;51.046;6.406;2023-09-07T04:19:38;14.20;99.90
29575;DHT22;16507;51.046;6.406;2023-09-07T04:22:04;14.10;99.90
29575;DHT22;16507;51.046;6.406;2023-09-07T04:24:30;14.20;99.90
29575;DHT22;16507;51.046;6.406;2023-09-07T04:27:00;14.10;99.90
29575;DHT22;16507;51.046;6.406;2023-09-07T04:29:29;14.20;99.90
29575;DHT22;16507;51.046;6.406;2023-09-07T04:31:55;14.20;99.90
29575;DHT22;16507;51.046;6.406;2023-09-07T04:34:21;14.20;99.90
29575;DHT22;16507;51.046;6.406;2023-09-07T04:36:47;14.30;99.90
29575;DHT22;16507;51.046;6.406;2023-09-07T04:39:13;14.20;99.90
29575;DHT22;16507;51.046;6.406;2023-09-07T04:41:40;14.20;99.90
29575;DHT22;16507;51.046;6.406;2023-09-07T04:44:05;14.30;99.90
29575;DHT22;16507;51.046;6.406;2023-09-07T04:46:31;14.30;99.90
29575;DHT22;16507;51.046;6.406;2023-09-07T04:48:57;14.40;99.90
29575;DHT22;16507;51.046;6.406;2023-09-07T04:51:22;14.40;99.90
29575;DHT22;16507;51.046;6.406;2023-09-07T04:53:49;14.50;99.90
29575;DHT22;16507;51.046;6.406;2023-09-07T04:56:15;14.50;99.90
29575;DHT22;16507;51.046;6.406;2023-09-07T04:58:41;14.50;99.90
29575;DHT22;16507;51.046;6.406;2023-09-07T05:01:09;14.50;99.90
29575;DHT22;16507;51.046;6.406;2023-09-07T05:03:36;14.50;99.90
29575;DHT22;16507;51.046;6.406;2023-09-07T05:06:02;14.50;99.90
29575;DHT22;16507;51.046;6.406;2023-09-07T05:08:30;14.50;99.90
29575;DHT22;16507;51.046;6.406;2023-09-07T05:10:58;14.50;99.90
29575;DHT22;16507;51.046;6.406;2023-09-07T05:13:24;14.50;99.90
29575;DHT22;16507;51.046;6.406;2023-09-07T05:15:51;14.60;99.90
29575;DHT22;16507;51.046;6.406;2023-09-07T05:18:17;14.60;99.90
29575;DHT22;16507;51.046;6.406;2023-09-07T05:20:44;14.70;99.90
29575;DHT22;16507;51.046;6.406;2023-09-07T05:23:13;14.70;99.90
29575;DHT22;16507;51.046;6.406;2023-09-07T05:25:51;14.90;99.90
29575;DHT22;16507;51.046;6.406;2023-09-07T05:28:19;15.00;99.90
29575;DHT22;16507;51.046;6.406;2023-09-07T05:30:45;15.10;99.90
29575;DHT22;16507;51.046;6.406;2023-09-07T05:33:11;15.20;99.90
29575;DHT22;16507;51.046;6.406;2023-09-07T05:35:37;15.30;99.90
29575;DHT22;16507;51.046;6.406;2023-09-07T05:38:04;15.40;99.90
29575;DHT22;16507;51.046;6.406;2023-09-07T05:40:34;15.40;99.90
29575;DHT22;16507;51.046;6.406;2023-09-07T05:43:00;15.50;99.90
29575;DHT22;16507;51.046;6.406;2023-09-07T05:45:25;15.60;99.90
29575;DHT22;16507;51.046;6.406;2023-09-07T05:47:51;15.70;99.90
29575;DHT22;16507;51.046;6.406;2023-09-07T05:50:16;15.80;99.90
29575;DHT22;16507;51.046;6.406;2023-09-07T05:52:42;15.90;99.90
29575;DHT22;16507;51.046;6.406;2023-09-07T05:55:08;16.00;99.90
29575;DHT22;16507;51.046;6.406;2023-09-07T05:57:33;16.10;99.90
29575;DHT22;16507;51.046;6.406;2023-09-07T05:59:59;16.30;99.90
29575;DHT22;16507;51.046;6.406;2023-09-07T06:02:25;18.10;99.90
29575;DHT22;16507;51.046;6.406;2023-09-07T06:04:50;19.80;99.90
29575;DHT22;16507;51.046;6.406;2023-09-07T06:07:16;21.10;99.90
29575;DHT22;16507;51.046;6.406;2023-09-07T06:09:41;22.00;99.90
29575;DHT22;16507;51.046;6.406;2023-09-07T06:12:07;22.80;99.90
29575;DHT22;16507;51.046;6.406;2023-09-07T06:14:33;23.40;99.90
29575;DHT22;16507;51.046;6.406;2023-09-07T06:16:58;23.80;99.90
29575;DHT22;16507;51.046;6.406;2023-09-07T06:19:24;23.90;96.80
29575;DHT22;16507;51.046;6.406;2023-09-07T06:21:49;22.50;99.90
29575;DHT22;16507;51.046;6.406;2023-09-07T06:24:15;21.20;99.90
29575;DHT22;16507;51.046;6.406;2023-09-07T06:26:41;20.40;99.90
29575;DHT22;16507;51.046;6.406;2023-09-07T06:29:08;19.80;99.90
29575;DHT22;16507;51.046;6.406;2023-09-07T06:31:33;19.50;99.90
29575;DHT22;16507;51.046;6.406;2023-09-07T06:33:59;19.20;99.90
29575;DHT22;16507;51.046;6.406;2023-09-07T06:36:24;19.10;99.90
29575;DHT22;16507;51.046;6.406;2023-09-07T06:38:50;19.00;99.90
29575;DHT22;16507;51.046;6.406;2023-09-07T06:41:16;19.00;99.90
29575;DHT22;16507;51.046;6.406;2023-09-07T06:43:41;19.10;99.90
29575;DHT22;16507;51.046;6.406;2023-09-07T06:46:08;19.10;99.90
29575;DHT22;16507;51.046;6.406;2023-09-07T06:48:35;19.20;99.90
29575;DHT22;16507;51.046;6.406;2023-09-07T06:51:04;19.30;99.90
29575;DHT22;16507;51.046;6.406;2023-09-07T06:53:30;19.40;99.90
29575;DHT22;16507;51.046;6.406;2023-09-07T06:56:03;19.50;99.90
29575;DHT22;16507;51.046;6.406;2023-09-07T06:58:29;19.50;99.90
29575;DHT22;16507;51.046;6.406;2023-09-07T07:00:58;19.70;99.90
29575;DHT22;16507;51.046;6.406;2023-09-07T07:03:27;19.80;99.90
29575;DHT22;16507;51.046;6.406;2023-09-07T07:05:52;19.90;99.90
29575;DHT22;16507;51.046;6.406;2023-09-07T07:08:18;20.00;99.90
29575;DHT22;16507;51.046;6.406;2023-09-07T07:10:44;20.10;99.90
29575;DHT22;16507;51.046;6.406;2023-09-07T07:13:09;20.20;99.90
29575;DHT22;16507;51.046;6.406;2023-09-07T07:15:35;20.30;99.90
29575;DHT22;16507;51.046;6.406;2023-09-07T07:18:01;20.40;99.90
29575;DHT22;16507;51.046;6.406;2023-09-07T07:20:31;20.50;99.90
29575;DHT22;16507;51.046;6.406;2023-09-07T07:22:56;20.60;99.90
29575;DHT22;16507;51.046;6.406;2023-09-07T07:25:22;20.70;99.90
29575;DHT22;16507;51.046;6.406;2023-09-07T07:27:48;20.90;99.90
29575;DHT22;16507;51.046;6.406;2023-09-07T07:30:13;20.90;99.90
29575;DHT22;16507;51.046;6.406;2023-09-07T07:32:39;21.10;99.90
29575;DHT22;16507;51.046;6.406;2023-09-07T07:35:05;21.10;99.90
29575;DHT22;16507;51.046;6.406;2023-09-07T07:37:30;21.30;99.90
29575;DHT22;16507;51.046;6.406;2023-09-07T07:39:56;21.30;99.90
29575;DHT22;16507;51.046;6.406;2023-09-07T07:42:21;21.50;99.90
29575;DHT22;16507;51.046;6.406;2023-09-07T07:44:47;21.60;99.90
29575;DHT22;16507;51.046;6.406;2023-09-07T07:47:13;21.70;99.90
29575;DHT22;16507;51.046;6.406;2023-09-07T07:49:38;21.70;99.90
29575;DHT22;16507;51.046;6.406;2023-09-07T07:52:04;21.80;99.90
29575;DHT22;16507;51.046;6.406;2023-09-07T07:54:30;21.90;99.90
29575;DHT22;16507;51.046;6.406;2023-09-07T07:56:55;22.10;99.90
29575;DHT22;16507;51.046;6.406;2023-09-07T07:59:21;22.20;99.90
29575;DHT22;16507;51.046;6.406;2023-09-07T08:01:47;22.40;99.90
29575;DHT22;16507;51.046;6.406;2023-09-07T08:04:12;22.50;99.90
29575;DHT22;16507;51.046;6.406;2023-09-07T08:06:38;22.60;99.90
29575;DHT22;16507;51.046;6.406;2023-09-07T08:09:04;22.60;99.90
29575;DHT22;16507;51.046;6.406;2023-09-07T08:11:29;22.70;99.90
29575;DHT22;16507;51.046;6.406;2023-09-07T08:13:56;22.80;99.90
29575;DHT22;16507;51.046;6.406;2023-09-07T08:16:22;23.00;99.90
29575;DHT22;16507;51.046;6.406;2023-09-07T08:18:48;23.00;99.90
29575;DHT22;16507;51.046;6.406;2023-09-07T08:21:14;23.00;99.90
29575;DHT22;16507;51.046;6.406;2023-09-07T08:23:40;23.10;99.90
29575;DHT22;16507;51.046;6.406;2023-09-07T08:26:05;23.20;99.90
29575;DHT22;16507;51.046;6.406;2023-09-07T08:28:31;23.20;99.90
29575;DHT22;16507;51.046;6.406;2023-09-07T08:30:57;23.50;99.90
29575;DHT22;16507;51.046;6.406;2023-09-07T08:33:24;23.50;99.90
29575;DHT22;16507;51.046;6.406;2023-09-07T08:35:54;23.60;99.90
29575;DHT22;16507;51.046;6.406;2023-09-07T08:38:21;23.60;99.90
29575;DHT22;16507;51.046;6.406;2023-09-07T08:40:50;23.70;99.90
29575;DHT22;16507;51.046;6.406;2023-09-07T08:43:17;23.80;99.90
29575;DHT22;16507;51.046;6.406;2023-09-07T08:46:09;24.00;99.90
29575;DHT22;16507;51.046;6.406;2023-09-07T08:48:37;24.10;99.90
29575;DHT22;16507;51.046;6.406;2023-09-07T08:51:04;24.10;99.90
29575;DHT22;16507;51.046;6.406;2023-09-07T08:53:31;24.20;99.90
29575;DHT22;16507;51.046;6.406;2023-09-07T08:55:58;24.30;99.90
29575;DHT22;16507;51.046;6.406;2023-09-07T08:58:25;24.30;99.90
29575;DHT22;16507;51.046;6.406;2023-09-07T09:00:50;24.30;99.90
29575;DHT22;16507;51.046;6.406;2023-09-07T09:03:17;24.50;99.90
29575;DHT22;16507;51.046;6.406;2023-09-07T09:05:43;24.70;99.90
29575;DHT22;16507;51.046;6.406;2023-09-07T09:08:09;24.70;99.90
29575;DHT22;16507;51.046;6.406;2023-09-07T09:10:38;24.70;99.90
29575;DHT22;16507;51.046;6.406;2023-09-07T09:13:05;24.60;99.90
29575;DHT22;16507;51.046;6.406;2023-09-07T09:15:30;24.70;99.90
29575;DHT22;16507;51.046;6.406;2023-09-07T09:17:56;24.70;99.20
29575;DHT22;16507;51.046;6.406;2023-09-07T09:20:25;24.80;90.40
29575;DHT22;16507;51.046;6.406;2023-09-07T09:22:53;24.90;98.20
29575;DHT22;16507;51.046;6.406;2023-09-07T09:25:19;25.00;99.90
29575;DHT22;16507;51.046;6.406;2023-09-07T09:27:46;25.30;99.90
29575;DHT22;16507;51.046;6.406;2023-09-07T09:30:12;25.70;99.90
29575;DHT22;16507;51.046;6.406;2023-09-07T09:32:40;25.80;94.20
29575;DHT22;16507;51.046;6.406;2023-09-07T09:35:07;25.90;77.10
29575;DHT22;16507;51.046;6.406;2023-09-07T09:37:33;25.90;75.20
29575;DHT22;16507;51.046;6.406;2023-09-07T09:40:00;25.70;69.80
29575;DHT22;16507;51.046;6.406;2023-09-07T09:42:27;25.70;72.00
29575;DHT22;16507;51.046;6.406;2023-09-07T09:44:54;25.80;70.50
29575;DHT22;16507;51.046;6.406;2023-09-07T09:47:21;25.90;65.60
29575;DHT22;16507;51.046;6.406;2023-09-07T09:49:49;25.80;71.60
29575;DHT22;16507;51.046;6.406;2023-09-07T09:52:15;25.90;70.90
29575;DHT22;16507;51.046;6.406;2023-09-07T09:54:42;26.10;67.80
29575;DHT22;16507;51.046;6.406;2023-09-07T09:57:08;26.10;72.70
29575;DHT22;16507;51.046;6.406;2023-09-07T09:59:34;26.30;69.60
29575;DHT22;16507;51.046;6.406;2023-09-07T10:02:01;26.50;71.20
29575;DHT22;16507;51.046;6.406;2023-09-07T10:04:28;26.40;64.80
29575;DHT22;16507;51.046;6.406;2023-09-07T10:07:05;26.50;62.50
29575;DHT22;16507;51.046;6.406;2023-09-07T10:09:34;26.60;63.90
29575;DHT22;16507;51.046;6.406;2023-09-07T10:12:02;26.80;59.50
29575;DHT22;16507;51.046;6.406;2023-09-07T10:14:42;27.00;66.80
29575;DHT22;16507;51.046;6.406;2023-09-07T10:17:08;27.10;60.70
29575;DHT22;16507;51.046;6.406;2023-09-07T10:19:35;27.40;65.30
29575;DHT22;16507;51.046;6.406;2023-09-07T10:22:03;27.50;58.10
29575;DHT22;16507;51.046;6.406;2023-09-07T10:24:31;27.60;56.70
29575;DHT22;16507;51.046;6.406;2023-09-07T10:27:05;27.50;56.80
29575;DHT22;16507;51.046;6.406;2023-09-07T10:29:50;27.60;56.30
29575;DHT22;16507;51.046;6.406;2023-09-07T10:32:18;28.00;66.10
29575;DHT22;16507;51.046;6.406;2023-09-07T10:34:43;28.10;52.70
29575;DHT22;16507;51.046;6.406;2023-09-07T10:37:13;28.10;58.80
29575;DHT22;16507;51.046;6.406;2023-09-07T10:39:40;28.20;51.70
29575;DHT22;16507;51.046;6.406;2023-09-07T10:42:08;28.30;51.30
29575;DHT22;16507;51.046;6.406;2023-09-07T10:44:34;28.30;52.50
29575;DHT22;16507;51.046;6.406;2023-09-07T10:47:00;28.30;49.30
29575;DHT22;16507;51.046;6.406;2023-09-07T10:49:26;28.30;52.90
29575;DHT22;16507;51.046;6.406;2023-09-07T10:51:51;28.60;49.60
29575;DHT22;16507;51.046;6.406;2023-09-07T10:54:21;28.50;43.60
29575;DHT22;16507;51.046;6.406;2023-09-07T10:56:48;28.70;51.70
29575;DHT22;16507;51.046;6.406;2023-09-07T10:59:14;28.70;54.00
29575;DHT22;16507;51.046;6.406;2023-09-07T11:01:40;28.70;48.60
29575;DHT22;16507;51.046;6.406;2023-09-07T11:04:05;28.60;50.50
29575;DHT22;16507;51.046;6.406;2023-09-07T11:06:33;28.70;50.40
29575;DHT22;16507;51.046;6.406;2023-09-07T11:09:00;28.80;48.60
29575;DHT22;16507;51.046;6.406;2023-09-07T11:11:27;28.90;44.70
29575;DHT22;16507;51.046;6.406;2023-09-07T11:13:53;28.90;48.80
29575;DHT22;16507;51.046;6.406;2023-09-07T11:16:19;29.10;49.60
29575;DHT22;16507;51.046;6.406;2023-09-07T11:18:45;29.10;48.70
29575;DHT22;16507;51.046;6.406;2023-09-07T11:21:11;29.40;47.50
29575;DHT22;16507;51.046;6.406;2023-09-07T11:23:37;29.40;45.10
29575;DHT22;16507;51.046;6.406;2023-09-07T11:26:09;29.30;44.30
29575;DHT22;16507;51.046;6.406;2023-09-07T11:28:35;29.40;41.90
29575;DHT22;16507;51.046;6.406;2023-09-07T11:31:00;29.40;44.60
29575;DHT22;16507;51.046;6.406;2023-09-07T11:33:26;29.40;49.00
29575;DHT22;16507;51.046;6.406;2023-09-07T11:35:53;29.70;42.70
29575;DHT22;16507;51.046;6.406;2023-09-07T11:38:21;29.70;45.60
29575;DHT22;16507;51.046;6.406;2023-09-07T11:40:47;29.70;46.20
29575;DHT22;16507;51.046;6.406;2023-09-07T11:43:14;29.80;42.10
29575;DHT22;16507;51.046;6.406;2023-09-07T11:45:41;30.00;45.40
29575;DHT22;16507;51.046;6.406;2023-09-07T11:48:07;30.00;42.90
29575;DHT22;16507;51.046;6.406;2023-09-07T11:50:36;29.90;42.40
29575;DHT22;16507;51.046;6.406;2023-09-07T11:53:03;29.90;36.00
29575;DHT22;16507;51.046;6.406;2023-09-07T11:55:28;30.00;41.50
29575;DHT22;16507;51.046;6.406;2023-09-07T11:57:54;29.90;36.20
29575;DHT22;16507;51.046;6.406;2023-09-07T12:00:20;30.00;39.20
29575;DHT22;16507;51.046;6.406;2023-09-07T12:02:45;29.90;39.80
29575;DHT22;16507;51.046;6.406;2023-09-07T12:05:11;30.00;40.60
29575;DHT22;16507;51.046;6.406;2023-09-07T12:07:41;30.30;40.90
29575;DHT22;16507;51.046;6.406;2023-09-07T12:10:10;30.60;39.10
29575;DHT22;16507;51.046;6.406;2023-09-07T12:12:40;30.40;35.70
29575;DHT22;16507;51.046;6.406;2023-09-07T12:15:06;30.10;36.70
29575;DHT22;16507;51.046;6.406;2023-09-07T12:17:32;30.30;35.40
29575;DHT22;16507;51.046;6.406;2023-09-07T12:19:58;30.20;34.50
29575;DHT22;16507;51.046;6.406;2023-09-07T12:22:24;30.30;36.00
29575;DHT22;16507;51.046;6.406;2023-09-07T12:24:49;30.40;35.00
29575;DHT22;16507;51.046;6.406;2023-09-07T12:27:16;30.60;41.80
29575;DHT22;16507;51.046;6.406;2023-09-07T12:29:41;30.80;31.10
29575;DHT22;16507;51.046;6.406;2023-09-07T12:32:07;30.90;36.10
29575;DHT22;16507;51.046;6.406;2023-09-07T12:34:33;31.10;38.00
29575;DHT22;16507;51.046;6.406;2023-09-07T12:36:58;31.20;33.30
29575;DHT22;16507;51.046;6.406;2023-09-07T12:39:24;31.10;32.90
29575;DHT22;16507;51.046;6.406;2023-09-07T12:41:50;31.30;34.00
29575;DHT22;16507;51.046;6.406;2023-09-07T12:44:15;31.10;36.80
29575;DHT22;16507;51.046;6.406;2023-09-07T12:46:43;31.30;31.40
29575;DHT22;16507;51.046;6.406;2023-09-07T12:49:09;31.60;33.50
29575;DHT22;16507;51.046;6.406;2023-09-07T12:51:35;31.60;26.60
29575;DHT22;16507;51.046;6.406;2023-09-07T12:54:00;31.60;28.00
29575;DHT22;16507;51.046;6.406;2023-09-07T12:56:26;31.70;28.50
29575;DHT22;16507;51.046;6.406;2023-09-07T12:58:52;31.70;29.40
29575;DHT22;16507;51.046;6.406;2023-09-07T13:01:18;31.60;26.00
29575;DHT22;16507;51.046;6.406;2023-09-07T13:03:44;31.60;23.10
29575;DHT22;16507;51.046;6.406;2023-09-07T13:06:10;31.50;22.40
29575;DHT22;16507;51.046;6.406;2023-09-07T13:08:35;31.30;25.40
29575;DHT22;16507;51.046;6.406;2023-09-07T13:11:01;31.40;25.80
29575;DHT22;16507;51.046;6.406;2023-09-07T13:13:27;31.70;26.10
29575;DHT22;16507;51.046;6.406;2023-09-07T13:15:57;31.70;24.10
29575;DHT22;16507;51.046;6.406;2023-09-07T13:18:24;31.70;26.70
29575;DHT22;16507;51.046;6.406;2023-09-07T13:20:50;32.00;23.00
29575;DHT22;16507;51.046;6.406;2023-09-07T13:23:17;31.60;22.30
29575;DHT22;16507;51.046;6.406;2023-09-07T13:25:43;31.60;22.10
29575;DHT22;16507;51.046;6.406;2023-09-07T13:28:09;31.80;19.80
29575;DHT22;16507;51.046;6.406;2023-09-07T13:30:34;32.10;22.60
29575;DHT22;16507;51.046;6.406;2023-09-07T13:33:00;32.10;21.20
29575;DHT22;16507;51.046;6.406;2023-09-07T13:35:26;32.00;21.80
29575;DHT22;16507;51.046;6.406;2023-09-07T13:37:52;31.80;18.90
29575;DHT22;16507;51.046;6.406;2023-09-07T13:40:18;31.90;20.30
29575;DHT22;16507;51.046;6.406;2023-09-07T13:42:47;31.60;17.70
29575;DHT22;16507;51.046;6.406;2023-09-07T13:45:13;31.50;18.70
29575;DHT22;16507;51.046;6.406;2023-09-07T13:47:39;31.40;15.40
29575;DHT22;16507;51.046;6.406;2023-09-07T13:50:05;31.00;14.20
29575;DHT22;16507;51.046;6.406;2023-09-07T13:52:31;31.40;20.70
29575;DHT22;16507;51.046;6.406;2023-09-07T13:54:56;31.70;18.10
29575;DHT22;16507;51.046;6.406;2023-09-07T13:57:22;31.90;18.80
29575;DHT22;16507;51.046;6.406;2023-09-07T13:59:48;32.00;19.50
29575;DHT22;16507;51.046;6.406;2023-09-07T14:02:14;31.90;15.90
29575;DHT22;16507;51.046;6.406;2023-09-07T14:04:39;32.10;17.80
29575;DHT22;16507;51.046;6.406;2023-09-07T14:07:05;32.00;11.40
29575;DHT22;16507;51.046;6.406;2023-09-07T14:09:30;31.80;12.90
29575;DHT22;16507;51.046;6.406;2023-09-07T14:11:56;31.90;14.30
29575;DHT22;16507;51.046;6.406;2023-09-07T14:14:22;32.00;16.60
29575;DHT22;16507;51.046;6.406;2023-09-07T14:16:48;32.20;17.00
29575;DHT22;16507;51.046;6.406;2023-09-07T14:19:15;32.50;15.70
29575;DHT22;16507;51.046;6.406;2023-09-07T14:21:41;32.30;13.60
29575;DHT22;16507;51.046;6.406;2023-09-07T14:24:06;32.30;18.30
29575;DHT22;16507;51.046;6.406;2023-09-07T14:26:32;32.20;20.50
29575;DHT22;16507;51.046;6.406;2023-09-07T14:28:57;32.20;17.90
29575;DHT22;16507;51.046;6.406;2023-09-07T14:31:23;32.40;19.70
29575;DHT22;16507;51.046;6.406;2023-09-07T14:33:49;32.60;17.20
29575;DHT22;16507;51.046;6.406;2023-09-07T14:36:15;32.70;15.80
29575;DHT22;16507;51.046;6.406;2023-09-07T14:38:41;32.60;14.30
29575;DHT22;16507;51.046;6.406;2023-09-07T14:41:10;32.60;16.90
29575;DHT22;16507;51.046;6.406;2023-09-07T14:43:47;32.60;13.60
29575;DHT22;16507;51.046;6.406;2023-09-07T14:46:13;32.40;11.20
29575;DHT22;16507;51.046;6.406;2023-09-07T14:48:39;32.40;15.30
29575;DHT22;16507;51.046;6.406;2023-09-07T14:51:04;32.40;16.00
29575;DHT22;16507;51.046;6.406;2023-09-07T14:53:30;32.20;14.10
29575;DHT22;16507;51.046;6.406;2023-09-07T14:55:56;32.40;12.80
29575;DHT22;16507;51.046;6.406;2023-09-07T14:58:22;32.50;13.00
29575;DHT22;16507;51.046;6.406;2023-09-07T15:00:47;32.60;14.40
29575;DHT22;16507;51.046;6.406;2023-09-07T15:03:13;32.60;15.40
29575;DHT22;16507;51.046;6.406;2023-09-07T15:05:39;32.50;9.90
29575;DHT22;16507;51.046;6.406;2023-09-07T15:08:04;32.70;15.20
29575;DHT22;16507;51.046;6.406;2023-09-07T15:10:32;32.80;16.90
29575;DHT22;16507;51.046;6.406;2023-09-07T15:13:00;32.70;15.60
29575;DHT22;16507;51.046;6.406;2023-09-07T15:15:28;32.80;16.00
29575;DHT22;16507;51.046;6.406;2023-09-07T15:17:54;32.80;17.20
29575;DHT22;16507;51.046;6.406;2023-09-07T15:20:20;32.70;14.70
29575;DHT22;16507;51.046;6.406;2023-09-07T15:22:45;32.70;12.90
29575;DHT22;16507;51.046;6.406;2023-09-07T15:25:11;32.60;14.60